Bookmark and Share
Track history (hours):
 

Ljuta

Last reported at 2014-Apr-20 00:31 UTC. Time now 2014-Apr-20 00:44 UTC.
Position N 55°51' E 010°52'.

Length 177 m; draft 9.6 m.

Type: Cargo ship. MMSI: 377715000.

NotesDate/timePositionNaut miles runAvg speedWind from/ knotsBaromVisibWave heightAir tempDewpointWater temp
2014-Apr-20 00:31N 55°51' E 010°52'5910.9
2014-Apr-19 19:08N 54°53' E 010°50'1011.5
2014-Apr-19 18:18N 54°43' E 010°47'1010.5
2014-Apr-19 17:19N 54°36' E 010°60'911.5
2014-Apr-19 16:34N 54°35' E 011°14'1212.2
2014-Apr-19 15:34N 54°29' E 011°33'1211.8
2014-Apr-19 14:33N 54°27' E 011°53'1111.1
2014-Apr-19 13:34N 54°28' E 012°12'1111.3
2014-Apr-19 12:34N 54°38' E 012°21'1211.5
2014-Apr-19 11:33N 54°45' E 012°38'1111.3
2014-Apr-19 10:34N 54°47' E 012°57'1211.7
2014-Apr-19 09:34N 54°47' E 013°18'1111.3
2014-Apr-19 08:33N 54°46' E 013°37'1212.1
2014-Apr-19 07:34N 54°42' E 013°57'1212.0
2014-Apr-19 06:34N 54°39' E 014°17'1211.9
2014-Apr-19 05:33N 54°39' E 014°38'1212.0
2014-Apr-19 04:33N 54°41' E 014°58'11012.0
2014-Apr-18 19:24N 54°58' E 018°07'1012.1
2014-Apr-18 18:33N 54°59' E 018°25'1211.8
2014-Apr-18 17:34N 54°56' E 018°45'1212.1
2014-Apr-18 16:34N 54°52' E 019°04'1211.8
2014-Apr-18 15:33N 54°48' E 019°24'1211.9
2014-Apr-18 14:33N 54°43' E 019°42'18 1.1
2014-Apr-17 22:32N 54°41' E 020°13'0 0.0
2014-Apr-17 08:17N 54°41' E 020°13'0 0.0
2014-Apr-17 07:29N 54°41' E 020°13'0 0.0
2014-Apr-17 06:23N 54°41' E 020°13'0 0.0
2014-Apr-17 05:29N 54°41' E 020°13'0 0.0
2014-Apr-17 04:32N 54°41' E 020°13'0 0.0
2014-Apr-17 03:32N 54°41' E 020°13'0 0.0
2014-Apr-17 02:32N 54°41' E 020°13'0 0.0
2014-Apr-17 01:23N 54°41' E 020°13'0 0.0
2014-Apr-17 00:32N 54°41' E 020°13'0 0.0
2014-Apr-16 23:32N 54°41' E 020°13'0 0.0
2014-Apr-16 22:32N 54°41' E 020°13'0 0.0
2014-Apr-16 21:32N 54°41' E 020°13'0 0.0
2014-Apr-16 20:32N 54°41' E 020°13'0 0.0
2014-Apr-16 19:17N 54°41' E 020°13'0 0.0
2014-Apr-16 18:23N 54°41' E 020°13'0 0.0
2014-Apr-16 17:32N 54°41' E 020°13'0 0.0
2014-Apr-16 16:32N 54°41' E 020°13'0 0.0
2014-Apr-16 15:11N 54°41' E 020°13'0 0.0
2014-Apr-16 14:32N 54°41' E 020°13'0 0.0
2014-Apr-16 13:32N 54°41' E 020°13'0 0.0
2014-Apr-16 12:29N 54°41' E 020°13'0 0.0
2014-Apr-16 11:32N 54°41' E 020°13'0 0.0
2014-Apr-16 10:32N 54°41' E 020°13'0 0.0
2014-Apr-16 09:32N 54°41' E 020°13'0 0.0
2014-Apr-15 21:05N 54°41' E 020°13'0 0.0
2014-Apr-15 15:29N 54°41' E 020°13'0 0.0
2014-Apr-15 03:33N 54°41' E 020°13'0 0.0
2014-Apr-15 02:29N 54°41' E 020°13'10 0.6
2014-Apr-14 09:33N 54°38' E 019°56'5 5.1
2014-Apr-14 08:33N 54°40' E 019°48'2 0.5
2014-Apr-14 05:31N 54°39' E 019°47'8 1.2
2014-Apr-13 22:33N 54°44' E 019°36'1212.4
2014-Apr-13 21:33N 54°48' E 019°16'1313.5
2014-Apr-13 20:34N 54°52' E 018°54'1413.9
2014-Apr-13 19:33N 54°56' E 018°30'1413.6
2014-Apr-13 18:33N 54°56' E 018°07'1413.8
2014-Apr-13 17:33N 54°54' E 017°43'11513.5
2014-Apr-13 09:04N 54°36' E 014°26'713.4
2014-Apr-13 08:33N 54°38' E 014°15'1413.7
2014-Apr-13 07:33N 54°42' E 013°52'1414.0
2014-Apr-13 06:33N 54°45' E 013°29'1413.7
2014-Apr-13 05:33N 54°45' E 013°05'1313.3
2014-Apr-13 04:33N 54°44' E 012°42'1414.1
2014-Apr-13 03:33N 54°36' E 012°22'1413.7
2014-Apr-13 02:34N 54°25' E 012°09'1414.3
2014-Apr-13 01:33N 54°25' E 011°45'1413.5
2014-Apr-13 00:33N 54°31' E 011°24'13410.8
2014-Apr-12 12:06N 56°44' E 011°52'712.1
2014-Apr-12 11:33N 56°51' E 011°48'1312.5
2014-Apr-12 10:30N 57°03' E 011°40'1212.5
2014-Apr-12 09:33N 57°14' E 011°33'1313.2
2014-Apr-12 08:33N 57°26' E 011°23'1312.7
2014-Apr-12 07:33N 57°36' E 011°06'1212.6
2014-Apr-12 06:33N 57°45' E 010°50'1313.3
2014-Apr-12 05:33N 57°46' E 010°25'8313.8
2014-Apr-11 23:33N 57°05' E 008°13'1513.5
2014-Apr-11 22:29N 56°52' E 007°59'1213.2
2014-Apr-11 21:33N 56°42' E 007°47'1613.2
2014-Apr-11 20:21N 56°28' E 007°34'5013.3
2014-Apr-11 16:33N 55°44' E 006°49'2913.4
2014-Apr-11 14:25N 55°20' E 006°21'1313.5
2014-Apr-11 13:29N 55°10' E 006°09'15013.3
2014-Apr-11 02:09N 53°11' E 003°31'914.4
2014-Apr-11 01:33N 53°03' E 003°26'1414.1
2014-Apr-11 00:33N 52°49' E 003°23'1414.6
2014-Apr-10 23:33N 52°35' E 003°23'1414.5
2014-Apr-10 22:33N 52°20' E 003°24'1813.9
2014-Apr-10 21:16N 52°06' E 003°06'1013.5
2014-Apr-10 20:33N 51°59' E 002°55'1313.2
2014-Apr-10 19:32N 51°49' E 002°40'1312.8
2014-Apr-10 18:33N 51°40' E 002°27'1212.3
2014-Apr-10 17:33N 51°31' E 002°14'1212.0
2014-Apr-10 16:33N 51°22' E 002°01'1211.9
2014-Apr-10 15:33N 51°13' E 001°49'1211.8
2014-Apr-10 14:33N 51°03' E 001°37'1212.2
2014-Apr-10 13:33N 50°53' E 001°27'1212.5
2014-Apr-10 12:33N 50°41' E 001°19'1313.1
2014-Apr-10 11:33N 50°33' E 001°04'1412.8
2014-Apr-10 10:27N 50°28' E 000°43'1413.2
2014-Apr-10 09:22N 50°24' E 000°22'5313.9
2014-Apr-10 05:33N 50°09' W 000°58'1615.2
2014-Apr-10 04:29N 50°04' W 001°23'3315.3
2014-Apr-10 02:17N 49°55' W 002°13'  

Dump ship's entire track history

sailing weather and tide predictions

Ljuta — J8B4127 — position and weather